createdAt,value
2022-08-01T00:00:09.204Z,2.00
2022-08-01T00:02:39.759Z,2.10
2022-08-01T00:05:08.183Z,2.03
2022-08-01T00:07:36.001Z,1.60
2022-08-01T00:10:08.309Z,2.03
2022-08-01T00:12:35.255Z,2.33
2022-08-01T00:15:02.101Z,1.83
2022-08-01T00:17:28.789Z,1.90
2022-08-01T00:19:55.420Z,1.93
2022-08-01T00:22:22.101Z,2.27
2022-08-01T00:24:48.812Z,1.77
2022-08-01T00:27:15.430Z,1.87
2022-08-01T00:30:13.212Z,2.10
2022-08-01T00:32:31.863Z,2.00
2022-08-01T00:34:58.507Z,1.60
2022-08-01T00:37:25.187Z,1.93
2022-08-01T00:39:52.073Z,2.03
2022-08-01T00:42:18.761Z,2.17
2022-08-01T00:44:45.578Z,1.97
2022-08-01T00:47:12.218Z,2.00
2022-08-01T00:49:39.097Z,2.10
2022-08-01T00:52:07.490Z,2.03
2022-08-01T00:54:34.628Z,2.40
2022-08-01T00:57:01.410Z,1.87
2022-08-01T00:59:28.265Z,2.17
2022-08-01T01:01:56.072Z,2.17
2022-08-01T01:04:23.606Z,2.20
2022-08-01T01:07:32.702Z,2.03
2022-08-01T01:10:10.579Z,1.40
2022-08-01T01:13:08.000Z,1.67
2022-08-01T01:15:45.800Z,1.73
2022-08-01T01:18:33.809Z,1.50
2022-08-01T01:21:12.558Z,1.63
2022-08-01T01:24:38.514Z,2.00
2022-08-01T01:27:19.912Z,1.60
2022-08-01T01:29:58.653Z,1.77
2022-08-01T01:32:35.113Z,1.83
2022-08-01T01:35:07.739Z,1.60
2022-08-01T01:37:36.584Z,1.30
2022-08-01T01:40:05.536Z,1.43
2022-08-01T01:42:34.249Z,1.47
2022-08-01T01:45:05.141Z,1.47
2022-08-01T01:47:33.612Z,1.50
2022-08-01T01:50:03.078Z,1.40
2022-08-01T01:52:31.875Z,1.23
2022-08-01T01:55:00.735Z,1.33
2022-08-01T01:57:30.416Z,1.40
2022-08-01T01:59:58.675Z,1.40
2022-08-01T02:02:26.679Z,1.60
2022-08-01T02:04:55.177Z,1.70
2022-08-01T02:07:27.454Z,1.60
2022-08-01T02:09:56.713Z,1.60
2022-08-01T02:12:25.442Z,1.43
2022-08-01T02:14:55.153Z,1.70
2022-08-01T02:17:24.998Z,1.57
2022-08-01T02:19:52.102Z,1.70
2022-08-01T02:22:27.061Z,1.70
2022-08-01T02:25:07.084Z,1.40
2022-08-01T02:27:46.954Z,1.57
2022-08-01T02:30:16.300Z,1.57
2022-08-01T02:32:47.637Z,1.63
2022-08-01T02:35:30.225Z,1.37
2022-08-01T02:37:59.585Z,1.43
2022-08-01T02:40:30.787Z,1.50
2022-08-01T02:43:00.033Z,1.50
2022-08-01T02:45:28.208Z,1.70
2022-08-01T02:48:09.360Z,1.80
2022-08-01T02:50:37.441Z,1.40
2022-08-01T02:53:07.332Z,1.37
2022-08-01T02:55:35.132Z,1.90
2022-08-01T02:58:04.159Z,1.60
2022-08-01T03:00:31.645Z,1.40
2022-08-01T03:03:00.776Z,1.40
2022-08-01T03:05:28.228Z,1.80
2022-08-01T03:07:56.931Z,1.60
2022-08-01T03:10:32.074Z,1.50
2022-08-01T03:13:01.329Z,1.57
2022-08-01T03:15:32.034Z,1.57
2022-08-01T03:18:01.913Z,1.50
2022-08-01T03:20:31.171Z,1.60
2022-08-01T03:23:00.277Z,1.77
2022-08-01T03:25:28.458Z,1.60
2022-08-01T03:28:02.336Z,1.40
2022-08-01T03:30:31.008Z,1.60
2022-08-01T03:32:58.196Z,1.30
2022-08-01T03:35:30.626Z,1.47
2022-08-01T03:38:15.833Z,1.40
2022-08-01T03:40:50.843Z,1.83
2022-08-01T03:43:42.642Z,1.70
2022-08-01T03:46:14.527Z,1.57
2022-08-01T03:48:48.225Z,1.50
2022-08-01T03:51:16.822Z,1.57
2022-08-01T03:53:46.255Z,1.90
2022-08-01T03:56:17.668Z,1.50
2022-08-01T03:58:45.040Z,1.37
2022-08-01T04:01:18.237Z,1.47
2022-08-01T04:03:45.526Z,1.40
2022-08-01T04:06:14.791Z,1.80
2022-08-01T04:08:42.322Z,2.13
2022-08-01T04:11:10.163Z,1.50
2022-08-01T04:13:38.399Z,2.10
2022-08-01T04:16:05.839Z,1.90
2022-08-01T04:18:33.243Z,1.80
2022-08-01T04:21:00.003Z,1.80
2022-08-01T04:23:28.642Z,1.93
2022-08-01T04:25:56.921Z,1.73
2022-08-01T04:28:24.680Z,1.63
2022-08-01T04:30:59.755Z,1.87
2022-08-01T04:33:31.079Z,1.87
2022-08-01T04:36:02.073Z,1.63
2022-08-01T04:38:32.990Z,2.20
2022-08-01T04:41:09.182Z,1.70
2022-08-01T04:43:37.617Z,1.83
2022-08-01T04:46:05.120Z,1.90
2022-08-01T04:48:34.622Z,2.27
2022-08-01T04:51:01.883Z,1.77
2022-08-01T04:53:28.948Z,1.60
2022-08-01T04:55:56.711Z,1.87
2022-08-01T04:58:23.436Z,2.53
2022-08-01T05:00:50.245Z,1.83
2022-08-01T05:03:16.954Z,2.00
2022-08-01T05:05:43.574Z,1.90
2022-08-01T05:08:11.118Z,1.77
2022-08-01T05:10:37.880Z,1.77
2022-08-01T05:13:04.615Z,2.10
2022-08-01T05:15:31.976Z,1.80
2022-08-01T05:17:58.794Z,1.73
2022-08-01T05:20:25.639Z,2.03
2022-08-01T05:22:52.661Z,2.30
2022-08-01T05:25:20.610Z,1.80
2022-08-01T05:28:05.932Z,1.80
2022-08-01T05:30:33.171Z,1.93
2022-08-01T05:32:59.836Z,2.00
2022-08-01T05:35:47.544Z,2.07
2022-08-01T05:38:14.814Z,2.10
2022-08-01T05:40:41.879Z,1.70
2022-08-01T05:43:08.619Z,1.77
2022-08-01T05:45:35.383Z,1.60
2022-08-01T05:48:02.071Z,2.20
2022-08-01T05:50:28.816Z,2.30
2022-08-01T05:52:55.501Z,1.73
2022-08-01T05:55:22.249Z,1.90
2022-08-01T05:57:49.001Z,1.93
2022-08-01T06:00:17.173Z,1.80
2022-08-01T06:02:44.484Z,1.77
2022-08-01T06:05:13.478Z,1.80
2022-08-01T06:07:41.215Z,1.70
2022-08-01T06:10:08.884Z,1.90
2022-08-01T06:12:36.476Z,2.00
2022-08-01T06:15:05.436Z,2.40
2022-08-01T06:17:32.134Z,1.90
2022-08-01T06:19:58.841Z,1.70
2022-08-01T06:22:25.688Z,1.80
2022-08-01T06:24:52.716Z,1.70
2022-08-01T06:27:21.881Z,1.87
2022-08-01T06:29:51.033Z,2.27
2022-08-01T06:32:26.806Z,2.20
2022-08-01T06:34:56.000Z,1.97
2022-08-01T06:37:23.456Z,2.27
2022-08-01T06:39:50.755Z,1.73
2022-08-01T06:42:18.428Z,1.80
2022-08-01T06:44:45.521Z,1.60
2022-08-01T06:47:12.222Z,1.93
2022-08-01T06:49:39.035Z,1.73
2022-08-01T06:52:06.098Z,1.67
2022-08-01T06:54:32.982Z,2.23
2022-08-01T06:56:59.649Z,2.13
2022-08-01T06:59:26.543Z,1.73
2022-08-01T07:01:53.216Z,1.90
2022-08-01T07:04:19.878Z,1.83
2022-08-01T07:06:46.575Z,2.33
2022-08-01T07:09:14.539Z,1.90
2022-08-01T07:11:42.349Z,1.67
2022-08-01T07:14:09.459Z,2.00
2022-08-01T07:16:36.547Z,2.20
2022-08-01T07:19:03.606Z,2.00
2022-08-01T07:21:40.650Z,2.20
2022-08-01T07:24:16.415Z,2.20
2022-08-01T07:26:53.306Z,2.30
2022-08-01T07:29:30.244Z,2.10
2022-08-01T07:31:58.243Z,2.37
2022-08-01T07:34:26.266Z,2.40
2022-08-01T07:36:53.803Z,2.40
2022-08-01T07:39:21.220Z,2.20
2022-08-01T07:42:06.159Z,1.93
2022-08-01T07:44:34.929Z,2.43
2022-08-01T07:47:01.708Z,2.30
2022-08-01T07:49:28.674Z,2.20
2022-08-01T07:52:04.213Z,2.00
2022-08-01T07:54:34.242Z,1.93
2022-08-01T07:57:02.349Z,1.97
2022-08-01T07:59:29.064Z,1.70
2022-08-01T08:01:55.814Z,1.80
2022-08-01T08:04:22.734Z,2.30
2022-08-01T08:06:50.217Z,2.10
2022-08-01T08:09:17.120Z,2.00
2022-08-01T08:11:48.458Z,2.10
2022-08-01T08:14:16.998Z,2.37
2022-08-01T08:16:44.880Z,2.00
2022-08-01T08:19:12.374Z,2.20
2022-08-01T08:21:39.888Z,1.90
2022-08-01T08:24:26.146Z,2.50
2022-08-01T08:26:56.709Z,2.50
2022-08-01T08:29:24.142Z,2.03
2022-08-01T08:31:53.009Z,2.07
2022-08-01T08:34:20.555Z,2.30
2022-08-01T08:36:48.965Z,2.17
2022-08-01T08:39:17.575Z,2.60
2022-08-01T08:41:49.085Z,2.37
2022-08-01T08:44:17.268Z,2.20
2022-08-01T08:46:49.285Z,2.30
2022-08-01T08:49:21.180Z,2.23
2022-08-01T08:51:50.865Z,1.80
2022-08-01T08:54:19.409Z,2.00
2022-08-01T08:56:48.228Z,2.10
2022-08-01T08:59:15.147Z,1.83
2022-08-01T09:01:43.550Z,1.90
2022-08-01T09:04:10.784Z,1.93
2022-08-01T09:06:38.076Z,2.10
2022-08-01T09:09:07.930Z,2.00
2022-08-01T09:11:36.021Z,1.87
2022-08-01T09:14:07.751Z,2.30
2022-08-01T09:16:35.809Z,2.03
2022-08-01T09:19:40.299Z,1.70
2022-08-01T09:22:19.670Z,2.00
2022-08-01T09:25:08.556Z,2.00
2022-08-01T09:27:43.862Z,1.90
2022-08-01T09:30:17.228Z,2.10
2022-08-01T09:32:55.958Z,2.10
2022-08-01T09:35:36.171Z,2.30
2022-08-01T09:38:20.615Z,2.33
2022-08-01T09:40:50.328Z,2.50
2022-08-01T09:43:17.896Z,2.23
2022-08-01T09:45:49.040Z,3.03
2022-08-01T09:48:18.500Z,2.13
2022-08-01T09:50:48.204Z,2.10
2022-08-01T09:53:29.818Z,2.30
2022-08-01T09:56:10.781Z,2.27
2022-08-01T09:59:02.271Z,2.40
2022-08-01T10:01:50.073Z,2.47
2022-08-01T10:04:18.428Z,1.93
2022-08-01T10:06:55.854Z,2.37
2022-08-01T10:09:40.237Z,2.10
2022-08-01T10:12:09.241Z,2.27
2022-08-01T10:14:46.139Z,2.10
2022-08-01T10:17:18.411Z,2.93
2022-08-01T10:19:46.008Z,2.50
2022-08-01T10:22:17.731Z,2.17
2022-08-01T10:24:48.937Z,1.80
2022-08-01T10:27:24.518Z,2.00
2022-08-01T10:30:14.199Z,2.03
2022-08-01T10:32:50.550Z,2.23
2022-08-01T10:35:24.071Z,1.93
2022-08-01T10:38:06.083Z,2.30
2022-08-01T10:40:38.289Z,1.83
2022-08-01T10:43:06.650Z,1.67
2022-08-01T10:45:34.465Z,1.93
2022-08-01T10:48:10.872Z,1.60
2022-08-01T10:50:49.376Z,1.83
2022-08-01T10:53:24.480Z,2.07
2022-08-01T10:56:02.313Z,2.23
2022-08-01T10:58:39.799Z,1.90
2022-08-01T11:01:27.937Z,1.80
2022-08-01T11:04:12.568Z,2.20
2022-08-01T11:07:03.200Z,1.70
2022-08-01T11:09:40.605Z,2.17
2022-08-01T11:12:13.659Z,1.93
2022-08-01T11:15:02.871Z,2.53
2022-08-01T11:17:54.707Z,2.00
2022-08-01T11:20:21.744Z,2.10
2022-08-01T11:23:03.218Z,1.80
2022-08-01T11:26:05.265Z,2.00
2022-08-01T11:28:32.697Z,1.80
2022-08-01T11:31:11.884Z,2.10
2022-08-01T11:33:46.229Z,1.90
2022-08-01T11:36:14.744Z,2.00
2022-08-01T11:38:47.432Z,2.30
2022-08-01T11:41:14.706Z,2.20
2022-08-01T11:43:56.824Z,2.30
2022-08-01T11:47:08.713Z,2.17
2022-08-01T11:49:41.531Z,2.20
2022-08-01T11:52:08.584Z,2.10
2022-08-01T11:54:38.029Z,1.97
2022-08-01T11:57:07.573Z,2.30
2022-08-01T12:00:02.808Z,2.73
2022-08-01T12:02:35.217Z,2.70
2022-08-01T12:05:12.161Z,2.10
2022-08-01T12:07:40.633Z,2.20
2022-08-01T12:10:11.717Z,2.20
2022-08-01T12:12:43.763Z,2.40
2022-08-01T12:15:11.512Z,2.60
2022-08-01T12:17:57.976Z,1.97
2022-08-01T12:20:32.179Z,2.63
2022-08-01T12:23:02.049Z,2.50
2022-08-01T12:25:28.844Z,2.57
2022-08-01T12:27:56.727Z,2.70
2022-08-01T12:30:26.015Z,2.43
2022-08-01T12:32:54.764Z,2.30
2022-08-01T12:35:27.082Z,2.43
2022-08-01T12:37:57.006Z,2.20
2022-08-01T12:40:29.399Z,2.40
2022-08-01T12:43:00.694Z,2.20
2022-08-01T12:45:29.938Z,2.43
2022-08-01T12:47:59.717Z,2.60
2022-08-01T12:50:30.711Z,2.83
2022-08-01T12:52:58.359Z,2.40
2022-08-01T12:55:33.741Z,2.30
2022-08-01T12:58:06.212Z,2.10
2022-08-01T13:00:33.044Z,2.17
2022-08-01T13:03:11.975Z,2.33
2022-08-01T13:05:56.339Z,1.97
2022-08-01T13:08:29.808Z,2.03
2022-08-01T13:11:10.033Z,2.30
2022-08-01T13:13:48.389Z,2.20
2022-08-01T13:16:30.788Z,2.33
2022-08-01T13:19:05.826Z,2.70
2022-08-01T13:21:52.051Z,2.30
2022-08-01T13:24:24.861Z,2.00
2022-08-01T13:26:56.966Z,2.20
2022-08-01T13:29:33.639Z,2.50
2022-08-01T13:32:05.702Z,2.20
2022-08-01T13:34:34.711Z,2.37
2022-08-01T13:37:02.669Z,2.03
2022-08-01T13:39:41.883Z,2.27
2022-08-01T13:42:16.436Z,2.10
2022-08-01T13:44:48.948Z,2.03
2022-08-01T13:47:16.297Z,2.10
2022-08-01T13:49:44.495Z,2.10
2022-08-01T13:52:11.353Z,2.20
2022-08-01T13:54:38.097Z,2.43
2022-08-01T13:57:05.304Z,2.10
2022-08-01T13:59:31.991Z,2.43
2022-08-01T14:01:58.865Z,2.47
2022-08-01T14:04:25.935Z,2.07
2022-08-01T14:06:52.687Z,1.90
2022-08-01T14:09:24.192Z,2.13
2022-08-01T14:11:51.398Z,2.30
2022-08-01T14:14:18.082Z,2.23
2022-08-01T14:16:46.106Z,2.20
2022-08-01T14:19:13.204Z,2.00
2022-08-01T14:21:39.898Z,2.10
2022-08-01T14:24:10.795Z,2.10
2022-08-01T14:26:37.471Z,2.10
2022-08-01T14:29:04.220Z,2.37
2022-08-01T14:31:34.299Z,1.83
2022-08-01T14:34:01.470Z,2.20
2022-08-01T14:36:31.328Z,2.03
2022-08-01T14:39:00.293Z,2.20
2022-08-01T14:41:30.688Z,2.10
2022-08-01T14:43:58.280Z,2.27
2022-08-01T14:46:24.938Z,2.20
2022-08-01T14:48:51.593Z,2.10
2022-08-01T14:51:18.451Z,2.23
2022-08-01T14:53:46.710Z,2.00
2022-08-01T14:56:18.363Z,1.90
2022-08-01T14:58:45.401Z,2.07
2022-08-01T15:01:12.302Z,2.30
2022-08-01T15:03:39.097Z,1.70
2022-08-01T15:06:07.455Z,1.80
2022-08-01T15:08:34.276Z,1.80
2022-08-01T15:11:02.217Z,2.10
2022-08-01T15:13:28.970Z,1.90
2022-08-01T15:15:55.590Z,1.90
2022-08-01T15:18:28.035Z,2.20
2022-08-01T15:20:54.984Z,1.83
2022-08-01T15:23:22.095Z,2.10
2022-08-01T15:25:48.874Z,1.70
2022-08-01T15:28:15.635Z,1.53
2022-08-01T15:30:42.440Z,1.90
2022-08-01T15:33:09.169Z,2.30
2022-08-01T15:35:35.940Z,1.73
2022-08-01T15:38:03.211Z,1.80
2022-08-01T15:40:29.930Z,1.90
2022-08-01T15:42:56.729Z,1.80
2022-08-01T15:45:46.497Z,1.70
2022-08-01T15:48:10.296Z,1.87
2022-08-01T15:50:39.234Z,1.93
2022-08-01T15:53:06.963Z,1.87
2022-08-01T15:55:38.248Z,1.70
2022-08-01T15:58:05.717Z,1.90
2022-08-01T16:00:33.873Z,1.53
2022-08-01T16:03:06.355Z,1.73
2022-08-01T16:05:33.072Z,2.00
2022-08-01T16:08:01.612Z,1.80
2022-08-01T16:10:30.011Z,1.60
2022-08-01T16:12:56.801Z,1.50
2022-08-01T16:15:31.309Z,1.50
2022-08-01T16:18:05.384Z,1.60
2022-08-01T16:20:32.152Z,1.50
2022-08-01T16:22:58.793Z,1.57
2022-08-01T16:25:25.527Z,1.47
2022-08-01T16:27:52.277Z,1.50
2022-08-01T16:30:18.992Z,1.77
2022-08-01T16:32:49.657Z,1.63
2022-08-01T16:35:20.451Z,1.60
2022-08-01T16:37:47.187Z,1.40
2022-08-01T16:40:13.838Z,1.50
2022-08-01T16:42:40.574Z,1.77
2022-08-01T16:45:13.647Z,1.60
2022-08-01T16:47:41.525Z,1.50
2022-08-01T16:50:09.661Z,1.70
2022-08-01T16:52:41.701Z,1.50
2022-08-01T16:55:09.589Z,1.57
2022-08-01T16:57:39.235Z,1.47
2022-08-01T17:00:21.289Z,1.90
2022-08-01T17:02:48.420Z,1.40
2022-08-01T17:05:15.356Z,1.60
2022-08-01T17:07:42.107Z,1.40
2022-08-01T17:10:09.985Z,1.47
2022-08-01T17:12:36.668Z,1.73
2022-08-01T17:15:04.352Z,1.70
2022-08-01T17:17:31.009Z,1.40
2022-08-01T17:19:57.803Z,1.50
2022-08-01T17:22:24.431Z,2.00
2022-08-01T17:24:52.096Z,1.47
2022-08-01T17:27:19.210Z,1.33
2022-08-01T17:29:46.440Z,1.70
2022-08-01T17:32:14.244Z,1.70
2022-08-01T17:34:42.457Z,1.63
2022-08-01T17:37:10.175Z,1.60
2022-08-01T17:39:39.425Z,1.50
2022-08-01T17:42:08.013Z,1.50
2022-08-01T17:44:35.264Z,2.10
2022-08-01T17:47:02.057Z,1.97
2022-08-01T17:49:53.215Z,2.00
2022-08-01T17:52:15.658Z,1.80
2022-08-01T17:54:42.371Z,2.20
2022-08-01T17:57:10.476Z,2.23
2022-08-01T17:59:37.327Z,2.40
2022-08-01T18:02:07.026Z,1.73
2022-08-01T18:04:33.882Z,1.70
2022-08-01T18:07:00.976Z,1.93
2022-08-01T18:09:32.629Z,1.90
2022-08-01T18:12:02.047Z,1.67
2022-08-01T18:14:40.048Z,1.50
2022-08-01T18:17:11.297Z,1.80
2022-08-01T18:19:39.072Z,1.80
2022-08-01T18:22:06.078Z,1.50
2022-08-01T18:24:52.700Z,1.50
2022-08-01T18:27:19.384Z,1.60
2022-08-01T18:29:48.323Z,1.53
2022-08-01T18:32:15.704Z,1.70
2022-08-01T18:34:42.465Z,1.50
2022-08-01T18:37:12.139Z,1.90
2022-08-01T18:39:40.681Z,1.87
2022-08-01T18:42:09.892Z,1.63
2022-08-01T18:44:37.043Z,2.33
2022-08-01T18:47:04.860Z,1.73
2022-08-01T18:49:31.919Z,1.60
2022-08-01T18:51:58.933Z,1.90
2022-08-01T18:54:27.240Z,1.60
2022-08-01T18:56:54.207Z,2.00
2022-08-01T18:59:21.669Z,1.70
2022-08-01T19:01:51.288Z,2.00
2022-08-01T19:04:18.627Z,1.70
2022-08-01T19:06:47.605Z,1.87
2022-08-01T19:09:14.666Z,1.67
2022-08-01T19:11:47.458Z,2.03
2022-08-01T19:14:15.288Z,1.67
2022-08-01T19:16:41.957Z,2.13
2022-08-01T19:19:11.714Z,2.27
2022-08-01T19:21:44.821Z,2.07
2022-08-01T19:24:23.444Z,1.53
2022-08-01T19:26:54.471Z,1.73
2022-08-01T19:29:35.047Z,1.83
2022-08-01T19:32:03.178Z,1.70
2022-08-01T19:34:29.980Z,1.63
2022-08-01T19:36:58.673Z,1.83
2022-08-01T19:39:29.416Z,1.60
2022-08-01T19:41:57.895Z,1.70
2022-08-01T19:44:26.122Z,1.60
2022-08-01T19:46:53.346Z,1.60
2022-08-01T19:49:21.754Z,1.60
2022-08-01T19:52:02.521Z,1.77
2022-08-01T19:54:37.721Z,1.40
2022-08-01T19:57:07.356Z,1.90
2022-08-01T19:59:37.333Z,1.67
2022-08-01T20:02:08.756Z,1.80
2022-08-01T20:04:35.759Z,1.47
2022-08-01T20:07:03.339Z,1.70
2022-08-01T20:09:31.703Z,1.70
2022-08-01T20:11:58.532Z,1.50
2022-08-01T20:14:26.775Z,1.47
2022-08-01T20:16:55.316Z,2.00
2022-08-01T20:19:27.360Z,1.90
2022-08-01T20:22:04.627Z,1.53
2022-08-01T20:24:41.280Z,1.67
2022-08-01T20:27:10.109Z,1.60
2022-08-01T20:29:37.383Z,1.70
2022-08-01T20:32:04.817Z,1.83
2022-08-01T20:34:37.421Z,1.80
2022-08-01T20:37:06.994Z,1.70
2022-08-01T20:39:38.331Z,1.50
2022-08-01T20:42:06.655Z,1.40
2022-08-01T20:44:36.371Z,2.00
2022-08-01T20:47:07.121Z,2.13
2022-08-01T20:49:36.399Z,2.13
2022-08-01T20:52:11.748Z,2.37
2022-08-01T20:54:40.622Z,1.70
2022-08-01T20:57:20.339Z,1.60
2022-08-01T20:59:56.476Z,1.70
2022-08-01T21:03:11.351Z,1.50
2022-08-01T21:05:55.498Z,1.67
2022-08-01T21:08:42.761Z,1.43
2022-08-01T21:11:16.087Z,1.40
2022-08-01T21:13:48.279Z,1.70
2022-08-01T21:16:23.984Z,1.50
2022-08-01T21:21:58.139Z,1.67
2022-08-01T21:24:34.304Z,1.93
2022-08-01T21:27:03.457Z,2.00
2022-08-01T21:29:32.768Z,1.53
2022-08-01T21:32:12.105Z,1.73
2022-08-01T21:34:39.643Z,1.50
2022-08-01T21:37:10.065Z,1.53
2022-08-01T21:39:37.916Z,1.47
2022-08-01T21:42:08.983Z,1.80
2022-08-01T21:44:42.284Z,1.50
2022-08-01T21:47:11.745Z,1.80
2022-08-01T21:49:40.749Z,1.70
2022-08-01T21:52:10.471Z,1.50
2022-08-01T21:54:49.045Z,1.47
2022-08-01T21:57:41.942Z,1.60
2022-08-01T22:00:12.636Z,1.43
2022-08-01T22:03:11.602Z,1.73
2022-08-01T22:05:40.535Z,1.67
2022-08-01T22:08:43.221Z,1.30
2022-08-01T22:11:13.430Z,1.20
2022-08-01T22:13:42.048Z,1.30
2022-08-01T22:16:10.363Z,1.37
2022-08-01T22:18:38.327Z,1.20
2022-08-01T22:21:05.079Z,1.40
2022-08-01T22:23:36.430Z,1.40
2022-08-01T22:26:06.574Z,1.27
2022-08-01T22:28:35.831Z,1.40
2022-08-01T22:31:03.008Z,1.13
2022-08-01T22:33:29.932Z,1.40
2022-08-01T22:35:56.993Z,1.23
2022-08-01T22:38:24.611Z,1.10
2022-08-01T22:41:14.228Z,1.20
2022-08-01T22:44:02.002Z,1.30
2022-08-01T22:46:43.692Z,1.30
2022-08-01T22:49:27.055Z,1.17
2022-08-01T22:52:18.967Z,1.33
2022-08-01T22:55:04.181Z,1.23
2022-08-01T22:57:40.527Z,1.27
2022-08-01T23:00:11.158Z,1.27
2022-08-01T23:02:44.624Z,1.30
2022-08-01T23:05:15.067Z,1.07
2022-08-01T23:07:49.955Z,1.47
2022-08-01T23:10:20.152Z,1.13
2022-08-01T23:12:50.505Z,1.10
2022-08-01T23:15:17.580Z,1.20
2022-08-01T23:17:46.621Z,1.70
2022-08-01T23:20:13.580Z,1.53
2022-08-01T23:22:41.592Z,1.53
2022-08-01T23:25:11.007Z,1.20
2022-08-01T23:27:51.859Z,1.30
2022-08-01T23:30:32.207Z,1.20
2022-08-01T23:32:59.669Z,1.60
2022-08-01T23:35:26.956Z,1.63
2022-08-01T23:37:55.896Z,1.50
2022-08-01T23:40:28.975Z,1.60
2022-08-01T23:42:56.009Z,1.57
2022-08-01T23:45:23.758Z,1.70
2022-08-01T23:47:51.031Z,1.60
2022-08-01T23:50:17.895Z,1.60
2022-08-01T23:52:48.587Z,1.67
2022-08-01T23:55:17.298Z,1.70
2022-08-01T23:57:44.468Z,1.60
